Time;durP1;ratioP1;P1;durP2;ratioP2;P2;SDS_P1;SDS_P2;PMS_P1;PMS_P2;Temp;Humidity;BMP_temperature;BMP_pressure;BME280_temperature;BME280_humidity;BME280_pressure;Samples;Min_cycle;Max_cycle;Signal;HPM_P1;HPM_P2
2022/01/16 00:01:04;;;;;;;13.50;7.55;;;2.10;65.00;;;;;;6184317;23;20016;-69
2022/01/16 00:06:13;;;;;;;12.25;7.45;;;2.20;65.20;;;;;;6184065;23;20016;-69
2022/01/16 00:08:39;;;;;;;23.33;11.93;;;2.20;65.00;;;;;;6184425;23;20076;-69
2022/01/16 00:11:05;;;;;;;17.30;8.35;;;2.20;65.00;;;;;;6184196;23;20040;-70
2022/01/16 00:13:31;;;;;;;15.25;6.90;;;2.20;65.00;;;;;;6184041;23;20361;-68
2022/01/16 00:15:57;;;;;;;18.67;8.75;;;2.20;65.00;;;;;;6184238;23;20013;-67
2022/01/16 00:18:26;;;;;;;41.17;21.00;;;2.20;65.10;;;;;;6157670;23;20523;-69
2022/01/16 00:20:52;;;;;;;18.65;10.65;;;2.20;65.00;;;;;;6184028;23;20005;-68
2022/01/16 00:23:26;;;;;;;10.80;6.28;;;2.20;65.00;;;;;;6184028;23;20031;-71
2022/01/16 00:25:53;;;;;;;7.45;4.78;;;2.20;64.80;;;;;;6184381;23;20329;-68
2022/01/16 00:28:20;;;;;;;8.27;5.90;;;2.20;64.80;;;;;;6183836;23;20009;-69
2022/01/16 00:30:46;;;;;;;7.43;3.38;;;2.20;65.10;;;;;;6184029;23;20008;-68
2022/01/16 00:33:12;;;;;;;5.72;2.00;;;2.20;64.90;;;;;;6184066;23;20012;-69
2022/01/16 00:35:38;;;;;;;5.10;1.90;;;2.20;65.00;;;;;;6184036;23;20071;-69
2022/01/16 00:38:04;;;;;;;6.25;2.80;;;2.20;64.90;;;;;;6184165;23;20004;-68
2022/01/16 00:40:30;;;;;;;5.70;2.15;;;2.20;65.80;;;;;;6184067;23;19997;-69
2022/01/16 00:42:57;;;;;;;4.90;2.10;;;2.20;65.20;;;;;;6183976;23;20052;-68
2022/01/16 00:45:29;;;;;;;4.05;1.70;;;2.20;65.20;;;;;;6157572;23;20005;-69
2022/01/16 00:47:55;;;;;;;5.22;1.77;;;2.20;65.00;;;;;;6183813;23;20005;-69
2022/01/16 00:50:21;;;;;;;5.05;2.00;;;2.20;65.10;;;;;;6183688;23;20499;-69
2022/01/16 00:52:47;;;;;;;5.30;1.88;;;2.20;65.20;;;;;;6183364;23;20001;-68
2022/01/16 00:55:13;;;;;;;6.65;2.20;;;2.20;65.40;;;;;;6184697;23;20104;-69
2022/01/16 00:57:38;;;;;;;6.50;2.45;;;2.20;65.50;;;;;;6157463;23;20008;-68
2022/01/16 01:00:06;;;;;;;6.22;2.30;;;2.20;65.50;;;;;;6183525;23;20005;-69
2022/01/16 01:02:31;;;;;;;7.00;2.50;;;2.10;65.40;;;;;;6183592;23;20332;-69
2022/01/16 01:04:57;;;;;;;6.00;2.20;;;2.10;65.50;;;;;;6183634;23;20072;-68
2022/01/16 01:07:23;;;;;;;5.88;2.08;;;2.10;65.50;;;;;;6183958;23;20015;-68
2022/01/16 01:09:48;;;;;;;5.88;1.98;;;2.10;65.50;;;;;;6183859;23;20001;-68
2022/01/16 01:12:25;;;;;;;5.10;1.90;;;2.10;65.60;;;;;;6183246;23;20005;-69
2022/01/16 01:15:08;;;;;;;5.40;1.60;;;2.20;65.50;;;;;;6183758;23;20001;-68
2022/01/16 01:17:46;;;;;;;4.82;1.90;;;2.20;65.60;;;;;;6183629;23;20001;-68
2022/01/16 01:20:15;;;;;;;5.85;1.80;;;2.20;65.40;;;;;;6157121;23;20495;-69
2022/01/16 01:22:42;;;;;;;5.57;1.92;;;2.20;65.60;;;;;;6183425;23;20087;-68
2022/01/16 01:25:09;;;;;;;4.88;1.80;;;2.20;65.80;;;;;;6183488;23;20048;-68
2022/01/16 01:27:35;;;;;;;4.38;1.80;;;2.20;66.00;;;;;;6157042;23;20495;-69
2022/01/16 01:30:09;;;;;;;5.03;1.98;;;2.20;66.00;;;;;;6183686;23;20001;-68
2022/01/16 01:32:36;;;;;;;5.53;1.83;;;2.20;66.30;;;;;;6183770;23;20040;-69
2022/01/16 01:35:03;;;;;;;4.40;1.80;;;2.20;66.30;;;;;;6183492;23;20005;-69
2022/01/16 01:37:29;;;;;;;5.47;1.88;;;2.20;66.40;;;;;;6183724;23;20008;-68
2022/01/16 01:39:55;;;;;;;5.07;1.80;;;2.20;66.50;;;;;;6183652;23;20866;-68
2022/01/16 01:42:21;;;;;;;5.78;1.80;;;2.20;66.30;;;;;;6183183;23;20028;-69
2022/01/16 01:52:59;;;;;;;6.10;2.80;;;2.10;66.40;;;;;;6183307;23;20064;-69
2022/01/16 01:55:25;;;;;;;12.60;5.07;;;2.20;66.40;;;;;;6183415;23;20421;-69
2022/01/16 01:57:51;;;;;;;7.15;3.33;;;2.10;66.40;;;;;;6183524;23;20029;-69
2022/01/16 02:00:18;;;;;;;10.43;6.57;;;2.10;66.50;;;;;;6183103;23;20001;-69
2022/01/16 02:05:26;;;;;;;10.90;5.40;;;2.20;66.10;;;;;;6194770;23;20020;-68
2022/01/16 02:07:52;;;;;;;11.52;5.50;;;2.10;65.90;;;;;;6185264;23;20329;-68
2022/01/16 02:10:18;;;;;;;7.55;3.60;;;2.10;66.00;;;;;;6185283;23;20005;-68
2022/01/16 02:12:46;;;;;;;35.60;20.30;;;2.10;65.60;;;;;;6158837;23;20052;-68
2022/01/16 02:28:00;;;;;;;8.32;5.20;;;2.20;65.60;;;;;;6185123;23;20445;-68
2022/01/16 02:31:57;;;;;;;8.48;3.78;;;2.10;64.70;;;;;;6194605;23;20060;-68
2022/01/16 02:36:59;;;;;;;4.88;2.00;;;2.10;64.20;;;;;;6185668;23;20017;-69
2022/01/16 02:39:26;;;;;;;5.53;2.20;;;2.10;63.40;;;;;;6185768;23;20028;-68
2022/01/16 02:41:54;;;;;;;5.95;2.60;;;2.20;62.90;;;;;;6158906;23;20055;-69
2022/01/16 02:44:30;;;;;;;5.90;2.90;;;2.20;62.90;;;;;;6185175;23;20013;-68
2022/01/16 02:46:56;;;;;;;5.55;2.80;;;2.20;63.60;;;;;;6184907;23;20031;-68
2022/01/16 02:49:30;;;;;;;4.88;2.25;;;2.10;64.00;;;;;;6158909;23;20012;-69
2022/01/16 02:52:08;;;;;;;5.57;2.40;;;2.20;64.30;;;;;;6184983;23;20012;-70
2022/01/16 02:54:36;;;;;;;4.80;2.08;;;2.20;64.50;;;;;;6185485;23;20009;-69
2022/01/16 02:57:05;;;;;;;5.25;2.30;;;2.10;64.70;;;;;;6184985;23;20008;-69
2022/01/16 02:59:30;;;;;;;8.07;3.40;;;2.10;64.90;;;;;;6184901;23;20071;-68
2022/01/16 03:01:57;;;;;;;9.35;5.50;;;2.20;65.00;;;;;;6184909;23;20001;-69
2022/01/16 03:04:23;;;;;;;10.40;9.30;;;2.10;65.00;;;;;;6184799;23;20009;-69
2022/01/16 03:06:49;;;;;;;5.43;2.90;;;2.10;65.20;;;;;;6184876;23;20051;-67
2022/01/16 03:09:15;;;;;;;5.47;2.13;;;2.10;65.00;;;;;;6184840;23;20063;-68
2022/01/16 03:11:48;;;;;;;3.90;1.73;;;2.10;65.00;;;;;;6184664;23;20420;-70
2022/01/16 03:14:19;;;;;;;4.63;2.00;;;2.10;65.10;;;;;;6182237;23;20016;-69
2022/01/16 03:16:50;;;;;;;5.47;2.28;;;2.10;65.20;;;;;;6182074;23;20035;-68
2022/01/16 03:22:04;;;;;;;4.65;2.10;;;2.20;65.40;;;;;;6183170;23;20340;-67
2022/01/16 03:24:43;;;;;;;6.30;2.55;;;2.20;65.20;;;;;;6183556;23;20035;-67
2022/01/16 03:27:14;;;;;;;6.88;3.58;;;2.10;65.00;;;;;;6183479;23;20079;-67
2022/01/16 03:29:43;;;;;;;5.70;2.40;;;2.10;65.20;;;;;;6183322;23;20016;-65
2022/01/16 03:32:13;;;;;;;5.20;2.10;;;2.10;65.10;;;;;;6181385;23;20427;-65
2022/01/16 03:34:39;;;;;;;10.30;5.05;;;2.20;65.30;;;;;;6182714;23;20001;-64
2022/01/16 03:37:05;;;;;;;29.65;17.08;;;2.10;65.10;;;;;;6182614;23;20040;-64
2022/01/16 03:39:31;;;;;;;10.68;5.40;;;2.10;64.70;;;;;;6156826;23;20053;-67
2022/01/16 03:42:00;;;;;;;11.10;5.43;;;2.20;64.80;;;;;;6182916;23;20055;-67
2022/01/16 03:44:25;;;;;;;12.38;6.13;;;2.10;64.90;;;;;;6183115;23;20009;-67
2022/01/16 03:46:51;;;;;;;9.77;5.60;;;2.20;65.10;;;;;;6184130;23;20373;-65
2022/01/16 03:49:24;;;;;;;6.72;3.20;;;2.20;64.70;;;;;;6184421;23;20001;-65
2022/01/16 03:51:51;;;;;;;6.35;3.00;;;2.20;64.60;;;;;;6184520;23;20008;-65
2022/01/16 03:54:21;;;;;;;6.25;2.70;;;2.20;64.50;;;;;;6183695;23;20135;-66
2022/01/16 03:56:47;;;;;;;10.15;5.88;;;2.20;64.40;;;;;;6184224;23;20054;-66
2022/01/16 03:59:14;;;;;;;8.65;5.28;;;2.20;64.40;;;;;;6183644;23;20015;-65
2022/01/16 04:01:39;;;;;;;5.88;3.58;;;2.20;64.40;;;;;;6183637;23;20707;-66
2022/01/16 04:04:05;;;;;;;6.57;3.70;;;2.20;64.20;;;;;;6182924;23;20001;-67
2022/01/16 04:06:32;;;;;;;9.18;5.60;;;2.20;64.20;;;;;;6184316;23;19997;-65
2022/01/16 04:08:59;;;;;;;9.02;5.25;;;2.20;64.00;;;;;;6183589;23;20004;-65
2022/01/16 04:11:27;;;;;;;6.50;3.08;;;2.20;63.90;;;;;;6184092;23;19997;-64
2022/01/16 04:14:03;;;;;;;7.20;3.80;;;2.20;63.80;;;;;;6183738;23;20009;-64
2022/01/16 04:16:29;;;;;;;7.47;4.28;;;2.10;63.80;;;;;;6182432;23;20004;-66
2022/01/16 04:18:55;;;;;;;14.57;7.85;;;2.20;63.90;;;;;;6181880;23;20059;-64
2022/01/16 04:21:24;;;;;;;14.40;10.82;;;2.10;63.50;;;;;;6182344;23;19997;-64
2022/01/16 04:23:50;;;;;;;7.60;5.45;;;2.20;63.60;;;;;;6182299;23;20008;-63
2022/01/16 04:26:17;;;;;;;6.07;3.38;;;2.10;63.70;;;;;;6181436;23;20072;-65
2022/01/16 04:28:43;;;;;;;5.93;2.70;;;2.20;64.20;;;;;;6182148;23;20044;-65
2022/01/16 04:31:09;;;;;;;5.38;2.25;;;2.20;64.00;;;;;;6182032;23;20004;-64
2022/01/16 04:33:36;;;;;;;4.93;2.22;;;2.20;64.10;;;;;;6181688;23;20083;-65
2022/01/16 04:36:02;;;;;;;4.88;1.88;;;2.20;64.00;;;;;;6182003;23;20069;-65
2022/01/16 04:38:27;;;;;;;4.65;2.13;;;2.20;63.90;;;;;;6182261;23;20068;-64
2022/01/16 04:43:53;;;;;;;4.05;1.90;;;2.20;64.20;;;;;;6182532;23;20028;-63
2022/01/16 04:46:27;;;;;;;5.43;2.40;;;2.20;63.90;;;;;;6182268;23;20001;-63
2022/01/16 04:48:54;;;;;;;11.00;4.55;;;2.20;63.70;;;;;;6182479;23;20028;-63
2022/01/16 04:51:21;;;;;;;8.32;3.10;;;2.20;63.60;;;;;;6182520;23;20005;-62
2022/01/16 04:53:47;;;;;;;8.07;3.95;;;2.30;63.70;;;;;;6181976;23;20125;-63
2022/01/16 04:56:13;;;;;;;5.68;2.70;;;2.30;63.70;;;;;;6182105;23;20071;-63
2022/01/16 04:58:40;;;;;;;6.00;2.53;;;2.30;63.40;;;;;;6182399;23;20008;-63
2022/01/16 05:01:07;;;;;;;4.82;2.30;;;2.30;63.40;;;;;;6182100;23;20001;-63
2022/01/16 05:03:33;;;;;;;5.10;2.50;;;2.30;63.60;;;;;;6182481;23;20005;-64
2022/01/16 05:06:02;;;;;;;7.10;2.60;;;2.30;63.50;;;;;;6182049;23;20031;-62
2022/01/16 05:08:28;;;;;;;4.95;2.20;;;2.30;63.60;;;;;;6182160;23;20057;-63
2022/01/16 05:10:55;;;;;;;4.40;2.00;;;2.30;63.40;;;;;;6154532;23;20385;-64
2022/01/16 05:18:47;;;;;;;4.70;2.20;;;2.30;63.40;;;;;;6181632;23;20015;-62
2022/01/16 05:21:13;;;;;;;5.20;2.40;;;2.30;63.80;;;;;;6182033;23;20005;-63
2022/01/16 05:23:42;;;;;;;5.40;2.30;;;2.30;63.90;;;;;;6181864;23;20005;-62
2022/01/16 05:26:10;;;;;;;7.70;2.95;;;2.30;64.00;;;;;;6180847;23;19997;-63
2022/01/16 05:28:36;;;;;;;6.25;2.75;;;2.30;64.10;;;;;;6181307;23;20437;-63
2022/01/16 05:31:02;;;;;;;6.13;2.75;;;2.20;64.20;;;;;;6181282;23;20748;-62
2022/01/16 05:33:28;;;;;;;6.55;2.80;;;2.30;64.20;;;;;;6181561;23;20040;-62
2022/01/16 05:35:54;;;;;;;5.60;2.60;;;2.30;64.10;;;;;;6181345;23;20020;-64
2022/01/16 05:38:21;;;;;;;5.57;2.67;;;2.30;63.90;;;;;;6181557;23;20028;-62
2022/01/16 05:40:46;;;;;;;5.60;2.75;;;2.30;63.70;;;;;;6181655;23;20009;-62
2022/01/16 05:43:12;;;;;;;6.03;2.85;;;2.30;63.70;;;;;;6181348;23;20013;-63
2022/01/16 05:45:38;;;;;;;6.00;2.83;;;2.30;63.80;;;;;;6181313;23;20004;-61
2022/01/16 05:48:04;;;;;;;4.97;2.60;;;2.30;63.70;;;;;;6182534;23;20099;-61
2022/01/16 05:50:31;;;;;;;5.07;2.50;;;2.30;64.10;;;;;;6181965;23;20013;-62
2022/01/16 05:53:01;;;;;;;6.55;2.90;;;2.30;63.60;;;;;;6181555;23;20432;-62
2022/01/16 05:55:31;;;;;;;8.45;3.97;;;2.30;63.70;;;;;;6181734;23;20013;-62
2022/01/16 05:57:57;;;;;;;7.85;3.95;;;2.30;63.50;;;;;;6181574;23;19997;-62
2022/01/16 06:00:24;;;;;;;5.53;3.00;;;2.30;63.70;;;;;;6155378;23;20001;-62
2022/01/16 06:02:49;;;;;;;7.00;3.40;;;2.30;63.60;;;;;;6181698;23;20357;-63
2022/01/16 06:05:16;;;;;;;6.88;3.40;;;2.30;63.40;;;;;;6182069;23;20012;-62
2022/01/16 06:07:51;;;;;;;7.13;3.80;;;2.30;63.50;;;;;;6181331;23;20417;-62
2022/01/16 06:10:17;;;;;;;6.35;3.25;;;2.30;63.70;;;;;;6182298;23;20008;-63
2022/01/16 06:12:42;;;;;;;7.18;3.00;;;2.30;63.70;;;;;;6181230;23;20001;-62
2022/01/16 06:15:08;;;;;;;5.90;2.70;;;2.30;63.80;;;;;;6181644;23;20047;-64
2022/01/16 06:17:34;;;;;;;6.10;2.85;;;2.30;63.90;;;;;;6181087;23;20421;-63
2022/01/16 06:20:00;;;;;;;8.02;4.80;;;2.30;64.10;;;;;;6181690;23;20001;-62
2022/01/16 06:22:25;;;;;;;5.53;2.80;;;2.30;64.20;;;;;;6181367;23;20484;-63
2022/01/16 06:24:51;;;;;;;7.85;3.10;;;2.30;64.10;;;;;;6181402;23;20090;-61
2022/01/16 06:27:17;;;;;;;6.55;2.45;;;2.30;64.20;;;;;;6181434;23;20370;-62
2022/01/16 06:29:43;;;;;;;6.00;2.42;;;2.30;64.40;;;;;;6182356;23;20001;-62
2022/01/16 06:32:08;;;;;;;5.80;2.22;;;2.30;64.50;;;;;;6181037;23;20005;-63
2022/01/16 06:34:34;;;;;;;5.22;2.50;;;2.30;64.40;;;;;;6181379;23;20001;-62
2022/01/16 06:37:00;;;;;;;4.82;2.20;;;2.20;64.50;;;;;;6181885;23;20023;-63
2022/01/16 06:39:25;;;;;;;5.43;2.40;;;2.20;64.60;;;;;;6182264;23;20460;-62
2022/01/16 06:41:51;;;;;;;5.28;2.50;;;2.20;64.60;;;;;;6181123;23;20055;-62
2022/01/16 06:44:17;;;;;;;8.32;3.05;;;2.20;64.80;;;;;;6181050;23;20031;-62
2022/01/16 06:46:42;;;;;;;4.88;2.22;;;2.20;64.80;;;;;;6180838;23;20001;-63
2022/01/16 06:49:10;;;;;;;4.78;2.20;;;2.30;64.20;;;;;;6181667;23;20008;-63
2022/01/16 06:51:37;;;;;;;7.22;2.65;;;2.30;64.10;;;;;;6181794;23;20001;-63
2022/01/16 06:54:03;;;;;;;6.60;2.45;;;2.30;64.20;;;;;;6183757;23;20005;-61
2022/01/16 06:56:30;;;;;;;6.18;2.65;;;2.30;64.20;;;;;;6183084;23;20043;-62
2022/01/16 06:58:56;;;;;;;6.32;3.10;;;2.30;64.10;;;;;;6183630;23;20001;-62
2022/01/16 07:01:22;;;;;;;7.40;3.22;;;2.30;64.40;;;;;;6183275;23;20056;-62
2022/01/16 07:03:49;;;;;;;7.63;3.40;;;2.40;64.20;;;;;;6157431;23;20005;-61
2022/01/16 07:06:15;;;;;;;7.35;3.50;;;2.40;63.80;;;;;;6183388;23;20040;-62
2022/01/16 07:08:41;;;;;;;6.53;3.17;;;2.40;63.60;;;;;;6183692;23;20001;-63
2022/01/16 07:11:07;;;;;;;7.68;3.53;;;2.30;63.80;;;;;;6183569;23;20005;-63
2022/01/16 07:13:32;;;;;;;8.27;3.35;;;2.40;63.70;;;;;;6182868;23;20080;-62
2022/01/16 07:15:58;;;;;;;9.93;4.55;;;2.40;63.60;;;;;;6182643;23;20040;-62
2022/01/16 07:18:24;;;;;;;10.05;4.32;;;2.50;63.60;;;;;;6183255;23;20012;-62
2022/01/16 07:20:50;;;;;;;11.00;5.75;;;2.40;63.60;;;;;;6183972;23;20079;-63
2022/01/16 07:23:18;;;;;;;10.48;5.88;;;2.40;63.80;;;;;;6183748;23;20004;-63
2022/01/16 07:25:44;;;;;;;18.92;11.38;;;2.40;63.80;;;;;;6182985;23;20035;-62
2022/01/16 07:28:10;;;;;;;41.72;21.58;;;2.50;64.00;;;;;;6183585;23;20005;-63
2022/01/16 07:30:37;;;;;;;71.95;35.05;;;2.50;63.80;;;;;;6182731;23;20021;-62
2022/01/16 07:33:07;;;;;;;35.03;16.08;;;2.50;63.80;;;;;;6183316;23;20001;-62
2022/01/16 07:35:34;;;;;;;71.38;32.38;;;2.60;63.50;;;;;;6182848;23;20060;-62
2022/01/16 07:38:00;;;;;;;81.38;37.22;;;2.60;63.70;;;;;;6181848;23;20397;-61
2022/01/16 07:40:27;;;;;;;66.10;30.65;;;2.60;63.30;;;;;;6183012;23;20005;-62
2022/01/16 07:42:53;;;;;;;44.85;21.75;;;2.60;63.30;;;;;;6182354;23;20451;-63
2022/01/16 07:45:20;;;;;;;65.55;31.52;;;2.60;63.60;;;;;;6156394;23;20015;-63
2022/01/16 07:47:45;;;;;;;20.58;9.55;;;2.60;63.40;;;;;;6183129;23;20112;-62
2022/01/16 07:50:16;;;;;;;16.40;8.05;;;2.70;63.50;;;;;;6182341;23;20425;-62
2022/01/16 07:52:42;;;;;;;69.00;34.55;;;2.60;63.60;;;;;;6182868;23;20080;-63
2022/01/16 07:55:08;;;;;;;62.30;30.92;;;2.60;63.90;;;;;;6183388;23;20039;-63
2022/01/16 07:57:34;;;;;;;70.57;33.17;;;2.70;64.00;;;;;;6183063;23;20104;-65
2022/01/16 08:00:00;;;;;;;39.83;20.60;;;2.70;63.80;;;;;;6182463;23;20051;-65
2022/01/16 08:02:25;;;;;;;44.67;23.50;;;2.70;64.00;;;;;;6182035;23;20039;-64
2022/01/16 08:04:51;;;;;;;62.55;34.67;;;2.70;64.30;;;;;;6183113;23;20009;-64
2022/01/16 08:07:17;;;;;;;19.45;10.70;;;2.70;64.70;;;;;;6182417;23;20337;-64
2022/01/16 08:09:43;;;;;;;27.10;18.70;;;2.70;64.90;;;;;;6182597;23;20083;-66
2022/01/16 08:12:11;;;;;;;25.33;17.05;;;2.70;65.20;;;;;;6182048;23;20001;-66
2022/01/16 08:14:37;;;;;;;19.95;12.52;;;2.70;65.40;;;;;;6182152;23;20032;-66
2022/01/16 08:17:03;;;;;;;9.85;5.18;;;2.70;65.80;;;;;;6181614;23;20023;-65
2022/01/16 08:19:29;;;;;;;16.80;7.03;;;2.70;66.10;;;;;;6181850;23;20001;-66
2022/01/16 08:21:55;;;;;;;79.88;30.92;;;2.70;66.20;;;;;;6182279;23;20089;-66
2022/01/16 08:24:22;;;;;;;31.02;13.48;;;2.70;66.60;;;;;;6181590;23;20001;-67
2022/01/16 08:26:48;;;;;;;39.30;16.27;;;2.70;66.70;;;;;;6181788;23;19997;-65
2022/01/16 08:29:14;;;;;;;43.78;16.65;;;2.70;66.70;;;;;;6182433;23;20024;-65
2022/01/16 08:31:40;;;;;;;23.23;10.40;;;2.80;66.80;;;;;;6181897;23;20001;-63
2022/01/16 08:34:06;;;;;;;12.27;5.05;;;2.70;66.80;;;;;;6181640;23;20005;-66
2022/01/16 08:36:31;;;;;;;29.50;12.57;;;2.80;66.90;;;;;;6180591;23;20365;-68
2022/01/16 08:38:57;;;;;;;20.90;8.63;;;2.70;66.90;;;;;;6181608;23;19997;-65
2022/01/16 08:41:24;;;;;;;20.08;9.18;;;2.70;67.00;;;;;;6156334;23;20008;-66
2022/01/16 08:43:50;;;;;;;12.45;6.00;;;2.70;67.20;;;;;;6182682;23;20071;-64
2022/01/16 08:46:16;;;;;;;9.55;3.50;;;2.70;66.90;;;;;;6182520;23;20080;-65
2022/01/16 08:48:42;;;;;;;11.75;4.90;;;2.70;66.70;;;;;;6181736;23;20445;-65
2022/01/16 08:51:08;;;;;;;12.02;5.07;;;2.70;67.00;;;;;;6181635;23;20025;-65
2022/01/16 08:53:34;;;;;;;10.30;3.63;;;2.70;67.20;;;;;;6182348;23;20009;-65
2022/01/16 08:56:00;;;;;;;8.52;3.22;;;2.70;66.90;;;;;;6182514;23;20385;-65
2022/01/16 08:58:26;;;;;;;9.38;3.80;;;2.70;67.20;;;;;;6182576;23;20001;-64
2022/01/16 09:00:52;;;;;;;12.02;4.63;;;2.70;67.00;;;;;;6182036;23;19997;-64
2022/01/16 09:03:20;;;;;;;11.13;4.68;;;2.70;67.00;;;;;;6182564;23;20059;-67
2022/01/16 09:05:46;;;;;;;22.65;9.10;;;2.70;66.70;;;;;;6182454;23;20024;-65
2022/01/16 09:08:13;;;;;;;14.02;5.20;;;2.70;66.80;;;;;;6181955;23;20080;-66
2022/01/16 09:10:41;;;;;;;13.95;5.63;;;2.70;66.50;;;;;;6182708;23;20063;-65
2022/01/16 09:13:11;;;;;;;11.23;4.53;;;2.70;66.40;;;;;;6181870;23;20634;-67
2022/01/16 09:15:40;;;;;;;11.60;4.95;;;2.70;66.10;;;;;;6181952;23;20005;-66
2022/01/16 09:18:06;;;;;;;36.35;13.02;;;2.70;66.30;;;;;;6182312;23;20422;-66
2022/01/16 09:20:33;;;;;;;21.90;7.65;;;2.70;66.20;;;;;;6181738;23;20001;-64
2022/01/16 09:23:00;;;;;;;29.00;10.95;;;2.80;66.00;;;;;;6182384;23;20100;-64
2022/01/16 09:25:26;;;;;;;11.75;5.10;;;2.80;65.70;;;;;;6181933;23;20646;-64
2022/01/16 09:27:52;;;;;;;7.72;3.40;;;2.90;65.30;;;;;;6182668;23;20009;-66
2022/01/16 09:30:20;;;;;;;8.88;3.72;;;2.90;65.20;;;;;;6181739;23;20084;-64
2022/01/16 09:32:46;;;;;;;8.82;3.38;;;2.90;64.90;;;;;;6182531;23;20078;-66
2022/01/16 09:35:12;;;;;;;8.55;3.78;;;2.90;64.80;;;;;;6184545;23;20348;-65
2022/01/16 09:37:38;;;;;;;9.02;3.45;;;3.00;64.70;;;;;;6182361;23;20024;-65
2022/01/16 09:40:06;;;;;;;17.73;6.30;;;3.00;64.50;;;;;;6182722;23;20015;-65
2022/01/16 09:42:33;;;;;;;15.40;5.95;;;3.00;64.20;;;;;;6181748;23;20016;-65
2022/01/16 09:44:58;;;;;;;10.38;4.28;;;3.00;63.90;;;;;;6181927;23;19997;-65
2022/01/16 09:47:24;;;;;;;7.82;3.08;;;3.00;63.60;;;;;;6181965;23;20009;-66
2022/01/16 09:49:50;;;;;;;10.70;3.50;;;3.10;63.00;;;;;;6181929;23;20005;-66
2022/01/16 09:52:17;;;;;;;9.70;4.05;;;3.10;62.60;;;;;;6181487;23;20429;-65
2022/01/16 09:54:42;;;;;;;8.60;3.30;;;3.10;62.70;;;;;;6182447;23;20059;-64
2022/01/16 09:57:11;;;;;;;9.52;3.72;;;3.10;62.30;;;;;;6181759;23;20011;-65
2022/01/16 09:59:36;;;;;;;7.63;3.10;;;3.20;62.20;;;;;;6181267;23;20025;-65
2022/01/16 10:02:04;;;;;;;31.17;10.23;;;3.20;62.10;;;;;;6182365;23;20060;-65
2022/01/16 10:04:35;;;;;;;33.25;14.63;;;3.20;61.90;;;;;;6182213;23;20013;-65
2022/01/16 10:07:09;;;;;;;37.63;12.02;;;3.30;61.30;;;;;;6155766;23;20013;-65
2022/01/16 10:09:37;;;;;;;27.20;9.40;;;3.20;61.40;;;;;;6182160;23;20274;-65
2022/01/16 10:12:05;;;;;;;24.88;8.68;;;3.20;61.50;;;;;;6180828;23;20005;-66
2022/01/16 10:14:37;;;;;;;23.30;8.40;;;3.20;62.40;;;;;;6181936;23;19997;-65
2022/01/16 10:17:11;;;;;;;21.20;8.10;;;3.20;61.30;;;;;;6181079;23;20371;-64
2022/01/16 10:19:37;;;;;;;20.80;7.65;;;3.30;60.80;;;;;;6181835;23;20005;-65
2022/01/16 10:22:06;;;;;;;8.60;3.95;;;3.30;60.50;;;;;;6181185;23;20005;-66
2022/01/16 10:24:34;;;;;;;8.48;3.13;;;3.30;59.90;;;;;;6181194;23;20298;-64
2022/01/16 10:27:09;;;;;;;16.00;5.85;;;3.20;60.20;;;;;;6183302;23;20009;-64
2022/01/16 10:29:52;;;;;;;23.52;8.55;;;3.20;60.00;;;;;;6183165;23;20073;-64
2022/01/16 10:32:25;;;;;;;24.27;8.95;;;3.20;59.80;;;;;;6184071;23;20005;-65
2022/01/16 10:35:06;;;;;;;12.07;4.53;;;3.10;59.00;;;;;;6183721;23;20110;-63
2022/01/16 10:37:33;;;;;;;9.95;4.50;;;3.10;58.80;;;;;;6183685;23;20059;-64
2022/01/16 10:40:02;;;;;;;21.77;7.53;;;3.10;58.70;;;;;;6184034;23;20071;-64
2022/01/16 10:42:30;;;;;;;21.42;8.02;;;3.10;58.70;;;;;;6183735;23;20015;-63
2022/01/16 10:45:00;;;;;;;28.23;9.65;;;3.00;58.90;;;;;;6182881;23;20019;-64
2022/01/16 10:47:29;;;;;;;27.50;9.63;;;3.00;59.30;;;;;;6182799;23;20016;-64
2022/01/16 10:50:08;;;;;;;13.75;5.70;;;3.00;59.00;;;;;;6156538;23;20001;-64
2022/01/16 10:52:57;;;;;;;20.45;7.60;;;3.00;58.90;;;;;;6183725;23;20050;-65
2022/01/16 10:55:47;;;;;;;12.88;5.13;;;3.00;58.80;;;;;;6182934;23;20088;-64
2022/01/16 10:58:17;;;;;;;29.52;9.52;;;2.80;58.90;;;;;;6183600;23;20017;-63
2022/01/16 11:00:44;;;;;;;26.30;9.27;;;2.80;59.00;;;;;;6182721;23;20074;-65
2022/01/16 11:03:13;;;;;;;13.80;5.72;;;2.80;58.60;;;;;;6183801;23;20413;-65
2022/01/16 11:05:43;;;;;;;32.80;21.65;;;2.80;59.00;;;;;;6182551;23;20012;-66
2022/01/16 11:08:29;;;;;;;12.30;6.50;;;2.80;59.40;;;;;;6183665;23;20001;-65
2022/01/16 11:10:57;;;;;;;67.50;31.35;;;2.80;59.00;;;;;;6181992;23;20001;-65
2022/01/16 11:13:30;;;;;;;11.95;5.40;;;2.80;59.30;;;;;;6182629;23;20008;-64
2022/01/16 11:16:05;;;;;;;30.55;17.58;;;2.70;59.00;;;;;;6155620;23;20001;-64
2022/01/16 11:18:35;;;;;;;85.00;50.75;;;2.70;59.40;;;;;;6181799;23;20080;-63
2022/01/16 11:23:32;;;;;;;30.52;20.30;;;2.50;59.20;;;;;;6182881;23;20055;-63
2022/01/16 11:26:01;;;;;;;8.65;4.65;;;2.50;59.80;;;;;;6181875;23;20430;-64
2022/01/16 11:28:27;;;;;;;8.15;4.00;;;2.50;59.30;;;;;;6182892;23;20132;-66
2022/01/16 11:30:56;;;;;;;10.32;5.00;;;2.50;59.30;;;;;;6183586;23;20005;-65
2022/01/16 11:33:24;;;;;;;8.30;4.25;;;2.40;59.40;;;;;;6182799;23;20036;-64
2022/01/16 11:35:53;;;;;;;8.32;4.00;;;2.40;59.90;;;;;;6181903;23;20024;-65
2022/01/16 11:38:21;;;;;;;7.53;3.40;;;2.40;59.30;;;;;;6182626;23;20369;-63
2022/01/16 11:40:48;;;;;;;6.55;3.53;;;2.40;59.20;;;;;;6182081;23;20005;-64
2022/01/16 11:43:19;;;;;;;7.35;4.25;;;2.40;59.20;;;;;;6181569;23;20005;-63
2022/01/16 11:46:05;;;;;;;7.70;4.15;;;2.40;59.40;;;;;;6156192;23;20429;-66
2022/01/16 11:48:40;;;;;;;8.57;4.10;;;2.40;59.30;;;;;;6182314;23;20009;-65
2022/01/16 11:51:26;;;;;;;7.45;3.90;;;2.40;58.70;;;;;;6183178;23;20012;-66
2022/01/16 11:54:11;;;;;;;7.43;3.45;;;2.40;58.30;;;;;;6183287;23;20009;-66
2022/01/16 11:56:40;;;;;;;8.95;6.05;;;2.40;58.00;;;;;;6184070;23;20770;-64
2022/01/16 11:59:14;;;;;;;12.07;7.45;;;2.40;58.20;;;;;;6183713;23;20438;-65
2022/01/16 12:02:00;;;;;;;19.17;14.48;;;2.40;57.90;;;;;;6184448;23;20005;-65
2022/01/16 12:04:29;;;;;;;15.00;10.68;;;2.30;58.20;;;;;;6183920;23;19997;-66
2022/01/16 12:07:13;;;;;;;13.60;9.00;;;2.30;58.40;;;;;;6183842;23;20409;-66
2022/01/16 12:09:48;;;;;;;13.68;8.20;;;2.30;58.60;;;;;;6157776;23;20425;-66
2022/01/16 12:12:16;;;;;;;13.45;6.43;;;2.30;58.60;;;;;;6182963;23;20036;-64
2022/01/16 12:14:58;;;;;;;10.82;4.90;;;2.30;58.50;;;;;;6182475;23;20001;-64
2022/01/16 12:17:27;;;;;;;14.30;6.30;;;2.40;58.70;;;;;;6183576;23;20092;-64
2022/01/16 12:19:56;;;;;;;18.00;7.88;;;2.30;58.80;;;;;;6182745;23;20001;-64
2022/01/16 12:22:46;;;;;;;16.08;7.18;;;2.30;58.90;;;;;;6157684;23;20337;-63
2022/01/16 12:25:25;;;;;;;24.95;10.23;;;2.30;58.20;;;;;;6184107;23;20005;-63
2022/01/16 12:27:55;;;;;;;19.20;8.52;;;2.30;58.50;;;;;;6183227;23;20012;-63
2022/01/16 12:30:33;;;;;;;12.05;5.05;;;2.30;58.10;;;;;;6183732;23;20008;-64
2022/01/16 12:33:03;;;;;;;11.55;4.80;;;2.20;58.10;;;;;;6183800;23;20005;-64
2022/01/16 12:35:54;;;;;;;14.98;6.00;;;2.20;58.40;;;;;;6181950;23;20073;-63
2022/01/16 12:38:25;;;;;;;13.55;5.35;;;2.20;58.50;;;;;;6183669;23;20001;-63
2022/01/16 12:40:58;;;;;;;14.10;5.53;;;2.20;58.50;;;;;;6182938;23;19997;-67
2022/01/16 12:43:30;;;;;;;11.30;4.43;;;2.10;58.60;;;;;;6182674;23;20152;-63
2022/01/16 12:45:56;;;;;;;10.68;4.75;;;2.00;58.90;;;;;;6182960;23;20499;-63
2022/01/16 12:48:22;;;;;;;9.15;4.70;;;2.00;59.20;;;;;;6183289;23;20001;-64
2022/01/16 12:50:49;;;;;;;11.18;3.95;;;2.00;59.40;;;;;;6182672;23;20056;-67
2022/01/16 12:54:04;;;;;;;8.70;3.78;;;2.00;59.50;;;;;;6183070;23;20016;-63
2022/01/16 12:56:38;;;;;;;9.68;4.80;;;2.00;59.40;;;;;;6151834;23;20369;-62
2022/01/16 12:59:05;;;;;;;9.93;4.28;;;2.00;59.50;;;;;;6182604;23;20035;-63
2022/01/16 13:01:32;;;;;;;9.05;4.35;;;2.00;59.50;;;;;;6182688;23;20064;-62
2022/01/16 13:03:58;;;;;;;8.63;3.97;;;2.00;59.60;;;;;;6182857;23;20396;-63
2022/01/16 13:06:28;;;;;;;7.53;3.20;;;2.00;59.60;;;;;;6181933;23;20318;-61
2022/01/16 13:09:08;;;;;;;7.70;3.15;;;2.00;59.60;;;;;;6182275;23;20005;-64
2022/01/16 13:11:38;;;;;;;7.10;3.58;;;1.90;59.80;;;;;;6182976;23;20020;-61
2022/01/16 13:14:10;;;;;;;8.77;4.38;;;2.00;60.00;;;;;;6182998;23;20424;-62
2022/01/16 13:16:47;;;;;;;7.47;3.35;;;1.90;60.30;;;;;;6182114;23;20001;-63
2022/01/16 13:19:25;;;;;;;6.60;3.20;;;1.90;60.40;;;;;;6183509;23;20005;-63
2022/01/16 13:22:04;;;;;;;8.30;3.47;;;1.90;60.40;;;;;;6183021;23;19997;-63
2022/01/16 13:24:41;;;;;;;7.60;2.97;;;1.90;60.50;;;;;;6183635;23;20001;-62
2022/01/16 13:27:19;;;;;;;7.10;3.20;;;1.80;60.50;;;;;;6182958;23;20409;-63
2022/01/16 13:29:57;;;;;;;6.30;3.10;;;1.80;61.20;;;;;;6182691;23;20012;-62
2022/01/16 13:32:34;;;;;;;7.07;2.80;;;1.80;60.10;;;;;;6182271;23;20013;-63
2022/01/16 13:35:02;;;;;;;7.80;3.20;;;1.80;60.00;;;;;;6183119;23;20004;-61
2022/01/16 13:37:35;;;;;;;7.88;4.05;;;1.70;59.80;;;;;;6183618;23;20028;-61
2022/01/16 13:40:02;;;;;;;8.52;3.75;;;1.70;60.20;;;;;;6182474;23;20472;-62
2022/01/16 13:43:02;;;;;;;9.70;4.13;;;1.70;59.60;;;;;;6182960;23;20413;-63